sensor_id;sensor_type;location;lat;lon;timestamp;P1;durP1;ratioP1;P2;durP2;ratioP2
23410;SDS011;11878;51.774;7.220;2023-04-24T00:00:11;2.30;;;0.90;;
23410;SDS011;11878;51.774;7.220;2023-04-24T00:03:15;2.07;;;0.90;;
23410;SDS011;11878;51.774;7.220;2023-04-24T00:06:18;1.07;;;0.73;;
23410;SDS011;11878;51.774;7.220;2023-04-24T00:09:20;1.77;;;1.07;;
23410;SDS011;11878;51.774;7.220;2023-04-24T00:12:21;3.37;;;0.70;;
23410;SDS011;11878;51.774;7.220;2023-04-24T00:15:23;1.40;;;0.60;;
23410;SDS011;11878;51.774;7.220;2023-04-24T00:18:25;2.43;;;0.57;;
23410;SDS011;11878;51.774;7.220;2023-04-24T00:21:26;0.77;;;0.63;;
23410;SDS011;11878;51.774;7.220;2023-04-24T00:24:28;1.87;;;0.50;;
23410;SDS011;11878;51.774;7.220;2023-04-24T00:27:30;1.63;;;0.83;;
23410;SDS011;11878;51.774;7.220;2023-04-24T00:30:32;0.60;;;0.50;;
23410;SDS011;11878;51.774;7.220;2023-04-24T00:33:33;1.10;;;0.50;;
23410;SDS011;11878;51.774;7.220;2023-04-24T00:36:36;1.97;;;0.87;;
23410;SDS011;11878;51.774;7.220;2023-04-24T00:39:37;2.00;;;0.60;;
23410;SDS011;11878;51.774;7.220;2023-04-24T00:42:39;1.03;;;0.50;;
23410;SDS011;11878;51.774;7.220;2023-04-24T00:45:42;3.47;;;1.00;;
23410;SDS011;11878;51.774;7.220;2023-04-24T00:48:44;0.80;;;0.47;;
23410;SDS011;11878;51.774;7.220;2023-04-24T00:51:46;1.30;;;0.70;;
23410;SDS011;11878;51.774;7.220;2023-04-24T00:54:50;3.00;;;0.80;;
23410;SDS011;11878;51.774;7.220;2023-04-24T00:57:52;3.97;;;0.70;;
23410;SDS011;11878;51.774;7.220;2023-04-24T01:00:54;0.87;;;0.70;;
23410;SDS011;11878;51.774;7.220;2023-04-24T01:03:58;3.57;;;0.93;;
23410;SDS011;11878;51.774;7.220;2023-04-24T01:07:01;1.03;;;0.70;;
23410;SDS011;11878;51.774;7.220;2023-04-24T01:10:03;0.90;;;0.70;;
23410;SDS011;11878;51.774;7.220;2023-04-24T01:13:05;1.90;;;1.00;;
23410;SDS011;11878;51.774;7.220;2023-04-24T01:16:08;1.20;;;0.80;;
23410;SDS011;11878;51.774;7.220;2023-04-24T01:19:10;1.03;;;0.90;;
23410;SDS011;11878;51.774;7.220;2023-04-24T01:22:14;2.57;;;0.57;;
23410;SDS011;11878;51.774;7.220;2023-04-24T01:25:16;2.70;;;1.33;;
23410;SDS011;11878;51.774;7.220;2023-04-24T01:28:18;3.50;;;1.10;;
23410;SDS011;11878;51.774;7.220;2023-04-24T01:31:19;5.60;;;1.17;;
23410;SDS011;11878;51.774;7.220;2023-04-24T01:34:21;2.53;;;1.30;;
23410;SDS011;11878;51.774;7.220;2023-04-24T01:37:23;1.83;;;1.17;;
23410;SDS011;11878;51.774;7.220;2023-04-24T01:40:25;2.67;;;1.40;;
23410;SDS011;11878;51.774;7.220;2023-04-24T01:43:27;4.10;;;1.07;;
23410;SDS011;11878;51.774;7.220;2023-04-24T01:46:31;4.03;;;1.27;;
23410;SDS011;11878;51.774;7.220;2023-04-24T01:49:38;1.80;;;1.10;;
23410;SDS011;11878;51.774;7.220;2023-04-24T01:52:40;3.07;;;1.10;;
23410;SDS011;11878;51.774;7.220;2023-04-24T01:55:43;2.57;;;1.30;;
23410;SDS011;11878;51.774;7.220;2023-04-24T01:58:47;4.97;;;1.77;;
23410;SDS011;11878;51.774;7.220;2023-04-24T02:01:52;4.67;;;1.97;;
23410;SDS011;11878;51.774;7.220;2023-04-24T02:04:54;2.23;;;1.40;;
23410;SDS011;11878;51.774;7.220;2023-04-24T02:07:56;2.40;;;1.40;;
23410;SDS011;11878;51.774;7.220;2023-04-24T02:10:57;2.13;;;1.57;;
23410;SDS011;11878;51.774;7.220;2023-04-24T02:13:59;2.13;;;1.47;;
23410;SDS011;11878;51.774;7.220;2023-04-24T02:17:01;4.20;;;2.03;;
23410;SDS011;11878;51.774;7.220;2023-04-24T02:20:02;5.03;;;2.23;;
23410;SDS011;11878;51.774;7.220;2023-04-24T02:23:05;6.17;;;2.73;;
23410;SDS011;11878;51.774;7.220;2023-04-24T02:26:07;5.57;;;2.90;;
23410;SDS011;11878;51.774;7.220;2023-04-24T02:29:09;4.83;;;3.13;;
23410;SDS011;11878;51.774;7.220;2023-04-24T02:32:11;6.03;;;3.10;;
23410;SDS011;11878;51.774;7.220;2023-04-24T02:35:13;5.67;;;3.27;;
23410;SDS011;11878;51.774;7.220;2023-04-24T02:38:16;9.10;;;4.10;;
23410;SDS011;11878;51.774;7.220;2023-04-24T02:41:17;5.70;;;3.37;;
23410;SDS011;11878;51.774;7.220;2023-04-24T02:44:19;8.90;;;3.80;;
23410;SDS011;11878;51.774;7.220;2023-04-24T02:47:21;7.37;;;3.43;;
23410;SDS011;11878;51.774;7.220;2023-04-24T02:50:23;6.77;;;3.73;;
23410;SDS011;11878;51.774;7.220;2023-04-24T02:53:24;9.83;;;4.27;;
23410;SDS011;11878;51.774;7.220;2023-04-24T02:56:26;7.90;;;4.03;;
23410;SDS011;11878;51.774;7.220;2023-04-24T02:59:30;6.80;;;4.00;;
23410;SDS011;11878;51.774;7.220;2023-04-24T03:02:31;9.30;;;4.73;;
23410;SDS011;11878;51.774;7.220;2023-04-24T03:05:33;9.37;;;4.63;;
23410;SDS011;11878;51.774;7.220;2023-04-24T03:08:35;10.03;;;5.07;;
23410;SDS011;11878;51.774;7.220;2023-04-24T03:11:37;9.07;;;5.33;;
23410;SDS011;11878;51.774;7.220;2023-04-24T03:14:42;8.17;;;5.10;;
23410;SDS011;11878;51.774;7.220;2023-04-24T03:17:43;8.87;;;5.87;;
23410;SDS011;11878;51.774;7.220;2023-04-24T03:20:45;10.03;;;6.30;;
23410;SDS011;11878;51.774;7.220;2023-04-24T03:23:48;15.83;;;7.77;;
23410;SDS011;11878;51.774;7.220;2023-04-24T03:26:50;11.03;;;5.97;;
23410;SDS011;11878;51.774;7.220;2023-04-24T03:30:11;14.13;;;7.53;;
23410;SDS011;11878;51.774;7.220;2023-04-24T03:33:21;13.13;;;7.97;;
23410;SDS011;11878;51.774;7.220;2023-04-24T03:36:32;13.93;;;6.93;;
23410;SDS011;11878;51.774;7.220;2023-04-24T03:39:34;12.70;;;6.70;;
23410;SDS011;11878;51.774;7.220;2023-04-24T03:42:35;13.87;;;7.83;;
23410;SDS011;11878;51.774;7.220;2023-04-24T03:45:40;18.30;;;7.83;;
23410;SDS011;11878;51.774;7.220;2023-04-24T03:48:42;17.43;;;6.90;;
23410;SDS011;11878;51.774;7.220;2023-04-24T03:51:44;13.50;;;7.90;;
23410;SDS011;11878;51.774;7.220;2023-04-24T03:54:57;12.60;;;6.93;;
23410;SDS011;11878;51.774;7.220;2023-04-24T03:58:01;10.60;;;6.60;;
23410;SDS011;11878;51.774;7.220;2023-04-24T04:01:02;10.67;;;7.03;;
23410;SDS011;11878;51.774;7.220;2023-04-24T04:04:30;18.23;;;7.90;;
23410;SDS011;11878;51.774;7.220;2023-04-24T04:07:33;13.90;;;7.90;;
23410;SDS011;11878;51.774;7.220;2023-04-24T04:10:36;15.27;;;8.17;;
23410;SDS011;11878;51.774;7.220;2023-04-24T04:13:38;14.70;;;8.57;;
23410;SDS011;11878;51.774;7.220;2023-04-24T04:16:41;15.53;;;9.03;;
23410;SDS011;11878;51.774;7.220;2023-04-24T04:19:44;13.27;;;8.77;;
23410;SDS011;11878;51.774;7.220;2023-04-24T04:22:46;17.40;;;9.33;;
23410;SDS011;11878;51.774;7.220;2023-04-24T04:25:53;17.57;;;8.50;;
23410;SDS011;11878;51.774;7.220;2023-04-24T04:29:00;14.80;;;8.77;;
23410;SDS011;11878;51.774;7.220;2023-04-24T04:32:03;21.13;;;9.37;;
23410;SDS011;11878;51.774;7.220;2023-04-24T04:35:05;20.13;;;9.17;;
23410;SDS011;11878;51.774;7.220;2023-04-24T04:38:08;14.93;;;9.23;;
23410;SDS011;11878;51.774;7.220;2023-04-24T04:41:32;18.93;;;8.50;;
23410;SDS011;11878;51.774;7.220;2023-04-24T04:44:36;18.10;;;8.87;;
23410;SDS011;11878;51.774;7.220;2023-04-24T04:47:40;17.37;;;8.77;;
23410;SDS011;11878;51.774;7.220;2023-04-24T04:50:43;16.30;;;8.70;;
23410;SDS011;11878;51.774;7.220;2023-04-24T04:53:45;20.30;;;9.20;;
23410;SDS011;11878;51.774;7.220;2023-04-24T04:56:47;19.33;;;9.37;;
23410;SDS011;11878;51.774;7.220;2023-04-24T04:59:51;21.50;;;8.77;;
23410;SDS011;11878;51.774;7.220;2023-04-24T05:03:09;17.73;;;9.17;;
23410;SDS011;11878;51.774;7.220;2023-04-24T05:06:26;18.47;;;8.73;;
23410;SDS011;11878;51.774;7.220;2023-04-24T05:09:29;16.37;;;8.17;;
23410;SDS011;11878;51.774;7.220;2023-04-24T05:12:36;15.67;;;9.17;;
23410;SDS011;11878;51.774;7.220;2023-04-24T05:15:38;15.60;;;8.20;;
23410;SDS011;11878;51.774;7.220;2023-04-24T05:18:40;14.60;;;8.33;;
23410;SDS011;11878;51.774;7.220;2023-04-24T05:21:45;13.97;;;7.87;;
23410;SDS011;11878;51.774;7.220;2023-04-24T05:24:47;14.93;;;8.57;;
23410;SDS011;11878;51.774;7.220;2023-04-24T05:28:09;13.10;;;7.00;;
23410;SDS011;11878;51.774;7.220;2023-04-24T05:31:12;13.53;;;7.03;;
23410;SDS011;11878;51.774;7.220;2023-04-24T05:34:14;13.93;;;7.40;;
23410;SDS011;11878;51.774;7.220;2023-04-24T05:37:19;14.60;;;7.03;;
23410;SDS011;11878;51.774;7.220;2023-04-24T05:40:21;11.80;;;7.20;;
23410;SDS011;11878;51.774;7.220;2023-04-24T05:43:22;16.83;;;7.90;;
23410;SDS011;11878;51.774;7.220;2023-04-24T05:46:24;11.43;;;7.57;;
23410;SDS011;11878;51.774;7.220;2023-04-24T05:49:26;10.30;;;6.60;;
23410;SDS011;11878;51.774;7.220;2023-04-24T05:52:28;18.27;;;6.90;;
23410;SDS011;11878;51.774;7.220;2023-04-24T05:55:30;12.70;;;7.03;;
23410;SDS011;11878;51.774;7.220;2023-04-24T05:58:32;12.13;;;7.83;;
23410;SDS011;11878;51.774;7.220;2023-04-24T06:01:34;9.47;;;6.67;;
23410;SDS011;11878;51.774;7.220;2023-04-24T06:04:45;11.57;;;6.20;;
23410;SDS011;11878;51.774;7.220;2023-04-24T06:07:48;11.17;;;7.23;;
23410;SDS011;11878;51.774;7.220;2023-04-24T06:10:50;10.90;;;6.50;;
23410;SDS011;11878;51.774;7.220;2023-04-24T06:13:54;9.17;;;6.20;;
23410;SDS011;11878;51.774;7.220;2023-04-24T06:17:12;10.60;;;6.07;;
23410;SDS011;11878;51.774;7.220;2023-04-24T06:20:15;11.67;;;5.97;;
23410;SDS011;11878;51.774;7.220;2023-04-24T06:23:16;10.40;;;6.53;;
23410;SDS011;11878;51.774;7.220;2023-04-24T06:26:18;8.23;;;5.87;;
23410;SDS011;11878;51.774;7.220;2023-04-24T06:29:20;8.60;;;5.77;;
23410;SDS011;11878;51.774;7.220;2023-04-24T06:32:22;13.07;;;6.73;;
23410;SDS011;11878;51.774;7.220;2023-04-24T06:35:25;9.97;;;6.30;;
23410;SDS011;11878;51.774;7.220;2023-04-24T06:38:27;10.00;;;5.80;;
23410;SDS011;11878;51.774;7.220;2023-04-24T06:41:30;13.97;;;7.47;;
23410;SDS011;11878;51.774;7.220;2023-04-24T06:44:32;10.23;;;6.20;;
23410;SDS011;11878;51.774;7.220;2023-04-24T06:47:38;8.73;;;6.43;;
23410;SDS011;11878;51.774;7.220;2023-04-24T06:50:40;10.97;;;6.17;;
23410;SDS011;11878;51.774;7.220;2023-04-24T06:53:42;10.07;;;5.20;;
23410;SDS011;11878;51.774;7.220;2023-04-24T06:56:43;9.40;;;6.40;;
23410;SDS011;11878;51.774;7.220;2023-04-24T06:59:47;8.47;;;5.77;;
23410;SDS011;11878;51.774;7.220;2023-04-24T07:02:49;9.90;;;5.70;;
23410;SDS011;11878;51.774;7.220;2023-04-24T07:05:51;8.80;;;5.70;;
23410;SDS011;11878;51.774;7.220;2023-04-24T07:08:54;8.20;;;4.80;;
23410;SDS011;11878;51.774;7.220;2023-04-24T07:11:57;11.80;;;5.07;;
23410;SDS011;11878;51.774;7.220;2023-04-24T07:14:59;10.07;;;5.10;;
23410;SDS011;11878;51.774;7.220;2023-04-24T07:18:01;6.97;;;4.70;;
23410;SDS011;11878;51.774;7.220;2023-04-24T07:21:06;7.83;;;4.60;;
23410;SDS011;11878;51.774;7.220;2023-04-24T07:24:08;7.13;;;4.37;;
23410;SDS011;11878;51.774;7.220;2023-04-24T07:27:11;8.53;;;4.77;;
23410;SDS011;11878;51.774;7.220;2023-04-24T07:30:16;6.90;;;4.33;;
23410;SDS011;11878;51.774;7.220;2023-04-24T07:33:17;9.70;;;4.87;;
23410;SDS011;11878;51.774;7.220;2023-04-24T07:36:19;6.97;;;3.73;;
23410;SDS011;11878;51.774;7.220;2023-04-24T07:39:21;7.10;;;4.27;;
23410;SDS011;11878;51.774;7.220;2023-04-24T07:42:23;5.27;;;3.50;;
23410;SDS011;11878;51.774;7.220;2023-04-24T07:45:25;5.80;;;3.63;;
23410;SDS011;11878;51.774;7.220;2023-04-24T07:48:29;4.90;;;3.50;;
23410;SDS011;11878;51.774;7.220;2023-04-24T07:51:31;5.07;;;3.17;;
23410;SDS011;11878;51.774;7.220;2023-04-24T07:54:34;4.83;;;3.37;;
23410;SDS011;11878;51.774;7.220;2023-04-24T07:57:36;5.53;;;3.30;;
23410;SDS011;11878;51.774;7.220;2023-04-24T08:00:42;4.73;;;3.10;;
23410;SDS011;11878;51.774;7.220;2023-04-24T08:03:44;7.07;;;3.70;;
23410;SDS011;11878;51.774;7.220;2023-04-24T08:06:47;8.83;;;2.80;;
23410;SDS011;11878;51.774;7.220;2023-04-24T08:09:49;5.13;;;2.50;;
23410;SDS011;11878;51.774;7.220;2023-04-24T08:12:51;3.07;;;2.20;;
23410;SDS011;11878;51.774;7.220;2023-04-24T08:15:53;3.23;;;2.13;;
23410;SDS011;11878;51.774;7.220;2023-04-24T08:18:55;6.47;;;2.80;;
23410;SDS011;11878;51.774;7.220;2023-04-24T08:21:56;2.90;;;2.07;;
23410;SDS011;11878;51.774;7.220;2023-04-24T08:24:59;4.50;;;2.40;;
23410;SDS011;11878;51.774;7.220;2023-04-24T08:28:02;6.60;;;2.00;;
23410;SDS011;11878;51.774;7.220;2023-04-24T08:31:05;3.57;;;1.80;;
23410;SDS011;11878;51.774;7.220;2023-04-24T08:34:07;3.83;;;2.00;;
23410;SDS011;11878;51.774;7.220;2023-04-24T08:37:11;2.90;;;1.50;;
23410;SDS011;11878;51.774;7.220;2023-04-24T08:40:14;2.43;;;1.73;;
23410;SDS011;11878;51.774;7.220;2023-04-24T08:43:16;1.87;;;1.20;;
23410;SDS011;11878;51.774;7.220;2023-04-24T08:46:19;2.60;;;1.03;;
23410;SDS011;11878;51.774;7.220;2023-04-24T08:49:22;1.93;;;1.20;;
23410;SDS011;11878;51.774;7.220;2023-04-24T08:52:26;1.87;;;1.07;;
23410;SDS011;11878;51.774;7.220;2023-04-24T08:55:29;1.53;;;1.30;;
23410;SDS011;11878;51.774;7.220;2023-04-24T08:58:32;3.33;;;1.20;;
23410;SDS011;11878;51.774;7.220;2023-04-24T09:01:34;2.93;;;1.20;;
23410;SDS011;11878;51.774;7.220;2023-04-24T09:04:38;2.10;;;1.20;;
23410;SDS011;11878;51.774;7.220;2023-04-24T09:07:43;2.23;;;1.47;;
23410;SDS011;11878;51.774;7.220;2023-04-24T09:10:47;1.37;;;1.10;;
23410;SDS011;11878;51.774;7.220;2023-04-24T09:13:51;1.80;;;1.33;;
23410;SDS011;11878;51.774;7.220;2023-04-24T09:16:54;1.67;;;1.07;;
23410;SDS011;11878;51.774;7.220;2023-04-24T09:19:56;1.67;;;1.00;;
23410;SDS011;11878;51.774;7.220;2023-04-24T09:22:58;2.20;;;1.27;;
23410;SDS011;11878;51.774;7.220;2023-04-24T09:26:00;2.70;;;1.23;;
23410;SDS011;11878;51.774;7.220;2023-04-24T09:29:03;1.77;;;1.37;;
23410;SDS011;11878;51.774;7.220;2023-04-24T09:32:22;2.33;;;1.37;;
23410;SDS011;11878;51.774;7.220;2023-04-24T09:35:26;2.37;;;1.30;;
23410;SDS011;11878;51.774;7.220;2023-04-24T09:38:32;3.07;;;1.70;;
23410;SDS011;11878;51.774;7.220;2023-04-24T09:41:43;2.33;;;1.50;;
23410;SDS011;11878;51.774;7.220;2023-04-24T09:44:50;1.67;;;0.97;;
23410;SDS011;11878;51.774;7.220;2023-04-24T09:48:04;2.97;;;1.10;;
23410;SDS011;11878;51.774;7.220;2023-04-24T09:51:10;2.50;;;1.67;;
23410;SDS011;11878;51.774;7.220;2023-04-24T09:54:16;2.33;;;1.50;;
23410;SDS011;11878;51.774;7.220;2023-04-24T09:57:21;9.73;;;1.40;;
23410;SDS011;11878;51.774;7.220;2023-04-24T10:00:27;2.40;;;1.43;;
23410;SDS011;11878;51.774;7.220;2023-04-24T10:03:31;2.53;;;1.60;;
23410;SDS011;11878;51.774;7.220;2023-04-24T10:06:36;2.67;;;1.70;;
23410;SDS011;11878;51.774;7.220;2023-04-24T10:09:44;4.53;;;1.57;;
23410;SDS011;11878;51.774;7.220;2023-04-24T10:12:46;3.57;;;2.07;;
23410;SDS011;11878;51.774;7.220;2023-04-24T10:15:48;7.93;;;3.70;;
23410;SDS011;11878;51.774;7.220;2023-04-24T10:18:51;8.17;;;3.10;;
23410;SDS011;11878;51.774;7.220;2023-04-24T10:21:53;10.10;;;3.80;;
23410;SDS011;11878;51.774;7.220;2023-04-24T10:24:56;4.10;;;2.40;;
23410;SDS011;11878;51.774;7.220;2023-04-24T10:28:00;5.17;;;3.20;;
23410;SDS011;11878;51.774;7.220;2023-04-24T10:31:02;5.93;;;3.87;;
23410;SDS011;11878;51.774;7.220;2023-04-24T10:34:05;8.83;;;3.60;;
23410;SDS011;11878;51.774;7.220;2023-04-24T10:37:10;11.80;;;4.30;;
23410;SDS011;11878;51.774;7.220;2023-04-24T10:40:12;6.30;;;3.93;;
23410;SDS011;11878;51.774;7.220;2023-04-24T10:43:19;6.67;;;3.63;;
23410;SDS011;11878;51.774;7.220;2023-04-24T10:46:20;7.60;;;3.23;;
23410;SDS011;11878;51.774;7.220;2023-04-24T10:49:29;11.60;;;3.73;;
23410;SDS011;11878;51.774;7.220;2023-04-24T10:52:45;15.10;;;4.87;;
23410;SDS011;11878;51.774;7.220;2023-04-24T10:56:05;4.17;;;2.40;;
23410;SDS011;11878;51.774;7.220;2023-04-24T10:59:08;9.70;;;3.00;;
23410;SDS011;11878;51.774;7.220;2023-04-24T11:02:15;8.23;;;2.30;;
23410;SDS011;11878;51.774;7.220;2023-04-24T11:05:19;11.63;;;3.13;;
23410;SDS011;11878;51.774;7.220;2023-04-24T11:08:23;4.87;;;2.07;;
23410;SDS011;11878;51.774;7.220;2023-04-24T11:11:28;10.50;;;2.90;;
23410;SDS011;11878;51.774;7.220;2023-04-24T11:14:30;5.53;;;3.30;;
23410;SDS011;11878;51.774;7.220;2023-04-24T11:17:59;13.07;;;4.10;;
23410;SDS011;11878;51.774;7.220;2023-04-24T11:21:09;8.60;;;2.73;;
23410;SDS011;11878;51.774;7.220;2023-04-24T11:24:22;8.43;;;3.13;;
23410;SDS011;11878;51.774;7.220;2023-04-24T11:27:46;10.10;;;3.77;;
23410;SDS011;11878;51.774;7.220;2023-04-24T11:30:49;13.37;;;3.33;;
23410;SDS011;11878;51.774;7.220;2023-04-24T11:33:52;9.00;;;3.70;;
23410;SDS011;11878;51.774;7.220;2023-04-24T11:36:54;10.87;;;3.87;;
23410;SDS011;11878;51.774;7.220;2023-04-24T11:39:57;11.40;;;3.83;;
23410;SDS011;11878;51.774;7.220;2023-04-24T11:43:00;14.67;;;3.60;;
23410;SDS011;11878;51.774;7.220;2023-04-24T11:46:02;11.47;;;3.83;;
23410;SDS011;11878;51.774;7.220;2023-04-24T11:49:06;10.30;;;3.93;;
23410;SDS011;11878;51.774;7.220;2023-04-24T11:52:08;9.70;;;3.27;;
23410;SDS011;11878;51.774;7.220;2023-04-24T11:58:20;10.97;;;3.47;;
23410;SDS011;11878;51.774;7.220;2023-04-24T12:01:23;11.20;;;3.40;;
23410;SDS011;11878;51.774;7.220;2023-04-24T12:04:24;8.27;;;3.37;;
23410;SDS011;11878;51.774;7.220;2023-04-24T12:07:27;11.03;;;3.47;;
23410;SDS011;11878;51.774;7.220;2023-04-24T12:10:29;11.93;;;3.73;;
23410;SDS011;11878;51.774;7.220;2023-04-24T12:13:32;10.27;;;2.90;;
23410;SDS011;11878;51.774;7.220;2023-04-24T12:16:35;7.17;;;2.50;;
23410;SDS011;11878;51.774;7.220;2023-04-24T12:19:36;7.27;;;2.90;;
23410;SDS011;11878;51.774;7.220;2023-04-24T12:22:50;5.40;;;2.30;;
23410;SDS011;11878;51.774;7.220;2023-04-24T12:25:59;7.47;;;2.10;;
23410;SDS011;11878;51.774;7.220;2023-04-24T12:29:02;6.77;;;2.33;;
23410;SDS011;11878;51.774;7.220;2023-04-24T12:32:15;9.00;;;2.50;;
23410;SDS011;11878;51.774;7.220;2023-04-24T12:35:21;14.77;;;2.23;;
23410;SDS011;11878;51.774;7.220;2023-04-24T12:38:25;6.23;;;2.47;;
23410;SDS011;11878;51.774;7.220;2023-04-24T12:41:30;5.27;;;1.90;;
23410;SDS011;11878;51.774;7.220;2023-04-24T12:44:32;6.20;;;1.90;;
23410;SDS011;11878;51.774;7.220;2023-04-24T12:47:35;4.90;;;2.23;;
23410;SDS011;11878;51.774;7.220;2023-04-24T12:50:39;5.60;;;1.97;;
23410;SDS011;11878;51.774;7.220;2023-04-24T12:53:42;5.53;;;2.23;;
23410;SDS011;11878;51.774;7.220;2023-04-24T12:56:44;7.60;;;2.10;;
23410;SDS011;11878;51.774;7.220;2023-04-24T12:59:45;9.30;;;2.30;;
23410;SDS011;11878;51.774;7.220;2023-04-24T13:02:47;4.30;;;1.97;;
23410;SDS011;11878;51.774;7.220;2023-04-24T13:05:49;5.03;;;1.90;;
23410;SDS011;11878;51.774;7.220;2023-04-24T13:08:51;3.80;;;1.23;;
23410;SDS011;11878;51.774;7.220;2023-04-24T13:11:54;4.50;;;1.13;;
23410;SDS011;11878;51.774;7.220;2023-04-24T13:14:57;6.00;;;1.40;;
23410;SDS011;11878;51.774;7.220;2023-04-24T13:17:59;7.00;;;1.10;;
23410;SDS011;11878;51.774;7.220;2023-04-24T13:21:01;2.47;;;1.37;;
23410;SDS011;11878;51.774;7.220;2023-04-24T13:24:03;2.37;;;0.97;;
23410;SDS011;11878;51.774;7.220;2023-04-24T13:27:06;4.87;;;1.47;;
23410;SDS011;11878;51.774;7.220;2023-04-24T13:30:08;5.10;;;1.43;;
23410;SDS011;11878;51.774;7.220;2023-04-24T13:33:10;2.87;;;1.03;;
23410;SDS011;11878;51.774;7.220;2023-04-24T13:36:11;4.93;;;2.10;;
23410;SDS011;11878;51.774;7.220;2023-04-24T13:39:13;3.87;;;1.10;;
23410;SDS011;11878;51.774;7.220;2023-04-24T13:42:15;1.53;;;0.97;;
23410;SDS011;11878;51.774;7.220;2023-04-24T13:45:17;4.07;;;1.20;;
23410;SDS011;11878;51.774;7.220;2023-04-24T13:48:25;3.40;;;1.20;;
23410;SDS011;11878;51.774;7.220;2023-04-24T13:51:27;8.07;;;1.30;;
23410;SDS011;11878;51.774;7.220;2023-04-24T13:54:29;2.63;;;0.90;;
23410;SDS011;11878;51.774;7.220;2023-04-24T13:57:31;2.67;;;1.10;;
23410;SDS011;11878;51.774;7.220;2023-04-24T14:00:32;1.20;;;0.90;;
23410;SDS011;11878;51.774;7.220;2023-04-24T14:03:34;2.57;;;1.00;;
23410;SDS011;11878;51.774;7.220;2023-04-24T14:06:40;1.33;;;0.90;;
23410;SDS011;11878;51.774;7.220;2023-04-24T14:09:42;2.50;;;1.33;;
23410;SDS011;11878;51.774;7.220;2023-04-24T14:12:44;3.57;;;1.07;;
23410;SDS011;11878;51.774;7.220;2023-04-24T14:15:46;7.37;;;1.40;;
23410;SDS011;11878;51.774;7.220;2023-04-24T14:18:48;8.10;;;2.50;;
23410;SDS011;11878;51.774;7.220;2023-04-24T14:21:49;2.37;;;1.70;;
23410;SDS011;11878;51.774;7.220;2023-04-24T14:24:51;2.97;;;2.20;;
23410;SDS011;11878;51.774;7.220;2023-04-24T14:27:53;4.07;;;1.53;;
23410;SDS011;11878;51.774;7.220;2023-04-24T14:30:55;7.03;;;2.60;;
23410;SDS011;11878;51.774;7.220;2023-04-24T14:33:56;3.30;;;1.40;;
23410;SDS011;11878;51.774;7.220;2023-04-24T14:36:58;3.80;;;1.80;;
23410;SDS011;11878;51.774;7.220;2023-04-24T14:40:00;2.50;;;1.67;;
23410;SDS011;11878;51.774;7.220;2023-04-24T14:43:06;4.13;;;1.63;;
23410;SDS011;11878;51.774;7.220;2023-04-24T14:46:08;6.87;;;1.80;;
23410;SDS011;11878;51.774;7.220;2023-04-24T14:49:10;3.40;;;1.23;;
23410;SDS011;11878;51.774;7.220;2023-04-24T14:52:13;3.67;;;1.63;;
23410;SDS011;11878;51.774;7.220;2023-04-24T14:55:15;4.57;;;1.03;;
23410;SDS011;11878;51.774;7.220;2023-04-24T14:58:17;2.37;;;0.90;;
23410;SDS011;11878;51.774;7.220;2023-04-24T15:01:19;3.60;;;1.10;;
23410;SDS011;11878;51.774;7.220;2023-04-24T15:04:21;2.97;;;0.90;;
23410;SDS011;11878;51.774;7.220;2023-04-24T15:07:23;2.13;;;0.80;;
23410;SDS011;11878;51.774;7.220;2023-04-24T15:10:24;3.80;;;1.87;;
23410;SDS011;11878;51.774;7.220;2023-04-24T15:13:26;3.53;;;0.83;;
23410;SDS011;11878;51.774;7.220;2023-04-24T15:16:28;1.33;;;0.70;;
23410;SDS011;11878;51.774;7.220;2023-04-24T15:19:30;3.47;;;1.10;;
23410;SDS011;11878;51.774;7.220;2023-04-24T15:22:32;3.53;;;1.17;;
23410;SDS011;11878;51.774;7.220;2023-04-24T15:25:34;4.03;;;1.40;;
23410;SDS011;11878;51.774;7.220;2023-04-24T15:28:36;4.07;;;0.97;;
23410;SDS011;11878;51.774;7.220;2023-04-24T15:31:38;4.20;;;1.70;;
23410;SDS011;11878;51.774;7.220;2023-04-24T15:34:41;5.63;;;1.00;;
23410;SDS011;11878;51.774;7.220;2023-04-24T15:37:43;3.80;;;0.90;;
23410;SDS011;11878;51.774;7.220;2023-04-24T15:40:45;5.00;;;1.37;;
23410;SDS011;11878;51.774;7.220;2023-04-24T15:43:47;5.13;;;1.27;;
23410;SDS011;11878;51.774;7.220;2023-04-24T15:46:49;6.50;;;1.40;;
23410;SDS011;11878;51.774;7.220;2023-04-24T15:49:52;4.73;;;1.00;;
23410;SDS011;11878;51.774;7.220;2023-04-24T15:52:54;8.50;;;1.60;;
23410;SDS011;11878;51.774;7.220;2023-04-24T15:55:56;6.43;;;1.60;;
23410;SDS011;11878;51.774;7.220;2023-04-24T15:58:58;5.13;;;1.37;;
23410;SDS011;11878;51.774;7.220;2023-04-24T16:02:01;11.13;;;1.80;;
23410;SDS011;11878;51.774;7.220;2023-04-24T16:05:04;3.93;;;1.50;;
23410;SDS011;11878;51.774;7.220;2023-04-24T16:08:09;5.40;;;1.60;;
23410;SDS011;11878;51.774;7.220;2023-04-24T16:11:11;3.33;;;1.10;;
23410;SDS011;11878;51.774;7.220;2023-04-24T16:14:12;3.33;;;1.27;;
23410;SDS011;11878;51.774;7.220;2023-04-24T16:17:14;4.33;;;1.30;;
23410;SDS011;11878;51.774;7.220;2023-04-24T16:20:16;7.57;;;2.00;;
23410;SDS011;11878;51.774;7.220;2023-04-24T16:23:18;7.07;;;1.60;;
23410;SDS011;11878;51.774;7.220;2023-04-24T16:26:20;4.07;;;1.03;;
23410;SDS011;11878;51.774;7.220;2023-04-24T16:29:21;3.47;;;1.07;;
23410;SDS011;11878;51.774;7.220;2023-04-24T16:32:23;3.73;;;1.43;;
23410;SDS011;11878;51.774;7.220;2023-04-24T16:35:25;4.83;;;1.10;;
23410;SDS011;11878;51.774;7.220;2023-04-24T16:38:27;5.03;;;1.20;;
23410;SDS011;11878;51.774;7.220;2023-04-24T16:41:28;8.00;;;1.57;;
23410;SDS011;11878;51.774;7.220;2023-04-24T16:44:31;4.90;;;1.23;;
23410;SDS011;11878;51.774;7.220;2023-04-24T16:47:32;3.90;;;1.00;;
23410;SDS011;11878;51.774;7.220;2023-04-24T16:50:34;4.97;;;1.23;;
23410;SDS011;11878;51.774;7.220;2023-04-24T16:53:36;3.80;;;1.30;;
23410;SDS011;11878;51.774;7.220;2023-04-24T16:56:39;4.33;;;1.63;;
23410;SDS011;11878;51.774;7.220;2023-04-24T16:59:41;8.57;;;1.77;;
23410;SDS011;11878;51.774;7.220;2023-04-24T17:02:42;5.70;;;1.90;;
23410;SDS011;11878;51.774;7.220;2023-04-24T17:05:48;8.10;;;1.93;;
23410;SDS011;11878;51.774;7.220;2023-04-24T17:08:50;6.23;;;1.70;;
23410;SDS011;11878;51.774;7.220;2023-04-24T17:11:52;5.57;;;1.60;;
23410;SDS011;11878;51.774;7.220;2023-04-24T17:14:54;9.10;;;1.77;;
23410;SDS011;11878;51.774;7.220;2023-04-24T17:17:56;7.70;;;1.73;;
23410;SDS011;11878;51.774;7.220;2023-04-24T17:20:57;7.50;;;1.70;;
23410;SDS011;11878;51.774;7.220;2023-04-24T17:23:59;3.43;;;1.40;;
23410;SDS011;11878;51.774;7.220;2023-04-24T17:27:01;7.57;;;1.83;;
23410;SDS011;11878;51.774;7.220;2023-04-24T17:30:15;7.87;;;2.17;;
23410;SDS011;11878;51.774;7.220;2023-04-24T17:33:17;4.87;;;1.23;;
23410;SDS011;11878;51.774;7.220;2023-04-24T17:36:19;20.50;;;2.40;;
23410;SDS011;11878;51.774;7.220;2023-04-24T17:39:21;7.43;;;1.67;;
23410;SDS011;11878;51.774;7.220;2023-04-24T17:42:22;9.97;;;1.60;;
23410;SDS011;11878;51.774;7.220;2023-04-24T17:45:24;9.07;;;2.67;;
23410;SDS011;11878;51.774;7.220;2023-04-24T17:48:26;6.33;;;1.40;;
23410;SDS011;11878;51.774;7.220;2023-04-24T17:51:28;7.10;;;1.53;;
23410;SDS011;11878;51.774;7.220;2023-04-24T17:54:30;3.30;;;1.23;;
23410;SDS011;11878;51.774;7.220;2023-04-24T17:57:31;4.67;;;1.47;;
23410;SDS011;11878;51.774;7.220;2023-04-24T18:00:34;7.80;;;1.43;;
23410;SDS011;11878;51.774;7.220;2023-04-24T18:03:36;7.17;;;2.37;;
23410;SDS011;11878;51.774;7.220;2023-04-24T18:06:41;4.17;;;1.60;;
23410;SDS011;11878;51.774;7.220;2023-04-24T18:09:42;6.13;;;1.83;;
23410;SDS011;11878;51.774;7.220;2023-04-24T18:12:45;5.63;;;1.43;;
23410;SDS011;11878;51.774;7.220;2023-04-24T18:15:47;4.30;;;1.40;;
23410;SDS011;11878;51.774;7.220;2023-04-24T18:18:49;2.57;;;1.47;;
23410;SDS011;11878;51.774;7.220;2023-04-24T18:21:51;6.60;;;1.50;;
23410;SDS011;11878;51.774;7.220;2023-04-24T18:24:52;7.00;;;1.73;;